Terminal Aerodrome Forecast
Issued by NWS

Home | Current Version | Previous Version | Graphics & Text | Print | Product List | Glossary On
Versions: 1 2 3 4 5 6 7 8 9 10 11 12 13 14 15 16 17 18 19 20 21 22 23 24
000
FTUS43 KABR 251200 AAB
TAFPIR
TAF AMD
KPIR 251209Z 2512/2612 02011KT 5SM -RASN BKN005 BKN015 OVC050
     FM251500 01010KT 3SM -SN BR OVC015
     FM251800 36015KT 1SM -SN BR OVC010=

USA.gov is the U.S. government's official web portal to all federal, state and local government web resources and services.